CheckWX is a tool to help pilots better visualize weather data.  It is not intended as a substitute for an official pre-flight weather briefing.

06:05:44 UTC

M40 METAR
Monroe County Airport
Aberdeen/Amory, Mississippi, USA
Current

11 mins ago

KM40 200555Z AUTO 00000KT 10SM OVC008 18/09 A2985 RMK AO2
Observed
Oct-20 @ 05:55 UTC
Visibility
10 SM
Flight Rules
IFR
Cloud Levels
  • Overcast at 800' AGL
Temperature
18°C / 64°F
Dewpoint
C / 48°F
Humidity
56%
Altimeter
29.85" Hg
Pressure
1010.82 hPa
Previous

31 mins ago

KM40 200535Z AUTO 00000KT 10SM OVC009 18/09 A2984 RMK AO2
Observed
Oct-20 @ 05:35 UTC
Visibility
10 SM
Flight Rules
IFR
Cloud Levels
  • Overcast at 900' AGL
Temperature
18°C / 64°F
Dewpoint
C / 48°F
Humidity
56%
Altimeter
29.84" Hg
Pressure
1010.52 hPa
Previous

51 mins ago

KM40 200515Z AUTO 00000KT 10SM OVC010 18/09 A2984 RMK AO2
Observed
Oct-20 @ 05:15 UTC
Visibility
10 SM
Flight Rules
MVFR
Cloud Levels
  • Overcast at 1,000' AGL
Temperature
18°C / 64°F
Dewpoint
C / 48°F
Humidity
56%
Altimeter
29.84" Hg
Pressure
1010.52 hPa